createdAt,value
2019-03-17T00:01:44.049Z,9.90
2019-03-17T00:04:31.432Z,9.80
2019-03-17T00:07:07.532Z,9.80
2019-03-17T00:09:48.428Z,9.70
2019-03-17T00:12:31.399Z,9.70
2019-03-17T00:15:11.921Z,9.70
2019-03-17T00:17:52.536Z,9.60
2019-03-17T00:20:32.901Z,9.60
2019-03-17T00:23:13.649Z,9.60
2019-03-17T00:25:54.171Z,9.60
2019-03-17T00:28:35.132Z,9.60
2019-03-17T00:31:23.683Z,9.70
2019-03-17T00:33:59.029Z,9.70
2019-03-17T00:36:39.778Z,9.70
2019-03-17T00:39:20.907Z,9.70
2019-03-17T00:42:01.668Z,9.70
2019-03-17T00:44:42.356Z,9.80
2019-03-17T00:47:23.425Z,9.70
2019-03-17T00:50:03.844Z,9.70
2019-03-17T00:52:44.717Z,9.70
2019-03-17T00:55:25.584Z,9.70
2019-03-17T00:58:06.200Z,9.70
2019-03-17T01:00:47.271Z,9.70
2019-03-17T01:03:28.482Z,9.70
2019-03-17T01:06:09.302Z,9.60
2019-03-17T01:08:50.069Z,9.60
2019-03-17T01:11:30.671Z,9.50
2019-03-17T01:14:11.042Z,9.60
2019-03-17T01:16:51.865Z,9.60
2019-03-17T01:19:33.084Z,9.70
2019-03-17T01:22:13.767Z,9.60
2019-03-17T01:24:54.854Z,9.60
2019-03-17T01:27:36.417Z,9.60
2019-03-17T01:30:17.891Z,9.60
2019-03-17T01:32:58.360Z,9.70
2019-03-17T01:35:39.031Z,9.70
2019-03-17T01:38:19.696Z,9.70
2019-03-17T01:41:00.690Z,9.70
2019-03-17T01:43:41.485Z,9.70
2019-03-17T01:46:22.094Z,9.80
2019-03-17T01:49:02.923Z,9.70
2019-03-17T01:51:43.659Z,9.70
2019-03-17T01:54:24.567Z,9.80
2019-03-17T01:57:05.378Z,9.80
2019-03-17T01:59:46.060Z,9.80
2019-03-17T02:02:26.805Z,9.80
2019-03-17T02:05:07.938Z,9.70
2019-03-17T02:07:48.578Z,9.70
2019-03-17T02:10:30.108Z,9.80
2019-03-17T02:13:11.227Z,9.80
2019-03-17T02:15:52.544Z,9.80
2019-03-17T02:18:33.470Z,9.90
2019-03-17T02:21:14.049Z,9.90
2019-03-17T02:23:54.512Z,9.90
2019-03-17T02:26:35.267Z,10.00
2019-03-17T02:29:15.750Z,10.00
2019-03-17T02:31:56.290Z,10.00
2019-03-17T02:34:36.909Z,10.00
2019-03-17T02:37:17.692Z,10.10
2019-03-17T02:39:58.286Z,10.00
2019-03-17T02:42:39.524Z,10.00
2019-03-17T02:45:20.688Z,10.00
2019-03-17T02:48:01.277Z,9.90
2019-03-17T02:50:41.646Z,10.00
2019-03-17T02:53:22.396Z,9.90
2019-03-17T02:56:03.236Z,9.90
2019-03-17T02:58:44.117Z,9.90
2019-03-17T03:01:24.853Z,9.90
2019-03-17T03:04:05.360Z,9.90
2019-03-17T03:06:46.249Z,9.90
2019-03-17T03:09:26.580Z,9.90
2019-03-17T03:12:07.611Z,9.90
2019-03-17T03:14:48.696Z,9.80
2019-03-17T03:17:29.631Z,9.80
2019-03-17T03:20:10.176Z,9.80
2019-03-17T03:22:50.662Z,9.70
2019-03-17T03:25:31.704Z,9.80
2019-03-17T03:28:12.388Z,9.80
2019-03-17T03:30:52.965Z,9.80
2019-03-17T03:33:33.771Z,9.80
2019-03-17T03:36:14.730Z,9.90
2019-03-17T03:38:55.795Z,9.90
2019-03-17T03:41:36.139Z,9.90
2019-03-17T03:44:16.688Z,9.80
2019-03-17T03:46:57.458Z,9.80
2019-03-17T03:49:37.903Z,9.80
2019-03-17T03:52:18.759Z,9.80
2019-03-17T03:54:59.386Z,9.80
2019-03-17T03:57:40.151Z,9.80
2019-03-17T04:00:21.407Z,9.70
2019-03-17T04:03:01.941Z,9.70
2019-03-17T04:05:42.644Z,9.80
2019-03-17T04:08:23.617Z,9.70
2019-03-17T04:11:04.264Z,9.70
2019-03-17T04:13:44.911Z,9.70
2019-03-17T04:16:25.469Z,9.70
2019-03-17T04:19:06.297Z,9.70
2019-03-17T04:21:46.682Z,9.60
2019-03-17T04:24:27.333Z,9.70
2019-03-17T04:27:07.782Z,9.70
2019-03-17T04:29:48.491Z,9.60
2019-03-17T04:32:29.314Z,9.60
2019-03-17T04:35:10.383Z,9.70
2019-03-17T04:37:51.428Z,9.70
2019-03-17T04:40:32.337Z,9.70
2019-03-17T04:43:13.569Z,9.70
2019-03-17T04:45:54.331Z,9.70
2019-03-17T04:48:35.614Z,9.80
2019-03-17T04:51:16.422Z,9.80
2019-03-17T04:53:57.331Z,9.80
2019-03-17T04:56:38.214Z,9.90
2019-03-17T04:59:18.643Z,9.90
2019-03-17T05:01:59.200Z,10.00
2019-03-17T05:04:39.742Z,9.90
2019-03-17T05:07:20.834Z,10.00
2019-03-17T05:10:01.525Z,10.00
2019-03-17T05:12:41.887Z,10.00
2019-03-17T05:15:22.410Z,10.10
2019-03-17T05:18:03.102Z,10.00
2019-03-17T05:20:44.027Z,10.10
2019-03-17T05:23:25.457Z,10.10
2019-03-17T05:26:05.870Z,10.10
2019-03-17T05:28:46.375Z,10.20
2019-03-17T05:31:27.661Z,10.10
2019-03-17T05:34:08.235Z,10.00
2019-03-17T05:36:49.007Z,10.00
2019-03-17T05:39:30.160Z,10.00
2019-03-17T05:42:10.850Z,10.10
2019-03-17T05:44:51.166Z,10.10
2019-03-17T05:47:31.939Z,10.10
2019-03-17T05:50:12.555Z,10.10
2019-03-17T05:52:53.444Z,10.00
2019-03-17T05:55:34.046Z,10.00
2019-03-17T05:58:14.615Z,10.10
2019-03-17T06:00:55.553Z,10.10
2019-03-17T06:03:36.543Z,10.10
2019-03-17T06:06:17.528Z,10.20
2019-03-17T06:08:58.601Z,10.20
2019-03-17T06:11:39.522Z,10.30
2019-03-17T06:14:20.109Z,10.20
2019-03-17T06:17:00.619Z,10.20
2019-03-17T06:19:41.166Z,10.10
2019-03-17T06:22:22.038Z,10.10
2019-03-17T06:25:02.862Z,10.10
2019-03-17T06:27:43.662Z,10.00
2019-03-17T06:30:24.538Z,10.00
2019-03-17T06:33:05.703Z,10.10
2019-03-17T06:35:46.467Z,10.10
2019-03-17T06:38:27.920Z,10.00
2019-03-17T06:41:08.318Z,10.20
2019-03-17T06:43:49.054Z,10.10
2019-03-17T06:46:29.826Z,10.20
2019-03-17T06:49:10.589Z,10.20
2019-03-17T06:51:51.523Z,10.30
2019-03-17T06:54:32.078Z,10.20
2019-03-17T06:57:13.015Z,10.20
2019-03-17T06:59:53.739Z,10.30
2019-03-17T07:02:34.418Z,10.30
2019-03-17T07:05:15.665Z,10.30
2019-03-17T07:07:56.167Z,10.30
2019-03-17T07:10:37.138Z,10.30
2019-03-17T07:13:17.840Z,10.30
2019-03-17T07:15:58.563Z,10.40
2019-03-17T07:18:39.474Z,10.30
2019-03-17T07:21:19.958Z,10.30
2019-03-17T07:24:00.656Z,10.40
2019-03-17T07:26:41.334Z,10.40
2019-03-17T07:29:22.222Z,10.40
2019-03-17T07:32:03.059Z,10.40
2019-03-17T07:34:44.027Z,10.50
2019-03-17T07:37:24.919Z,10.50
2019-03-17T07:40:05.767Z,10.60
2019-03-17T07:42:46.530Z,10.50
2019-03-17T07:45:27.302Z,10.40
2019-03-17T07:48:08.059Z,10.50
2019-03-17T07:50:48.595Z,10.60
2019-03-17T07:53:29.442Z,10.50
2019-03-17T07:56:10.135Z,10.50
2019-03-17T07:58:50.579Z,10.50
2019-03-17T08:01:32.010Z,10.60
2019-03-17T08:04:13.150Z,10.60
2019-03-17T08:06:53.851Z,10.70
2019-03-17T08:09:34.755Z,10.60
2019-03-17T08:12:15.520Z,10.70
2019-03-17T08:14:57.751Z,10.90
2019-03-17T08:17:38.965Z,10.90
2019-03-17T08:20:19.481Z,10.90
2019-03-17T08:23:00.549Z,10.90
2019-03-17T08:25:41.631Z,11.00
2019-03-17T08:28:22.463Z,11.00
2019-03-17T08:31:03.994Z,11.10
2019-03-17T08:33:45.207Z,11.10
2019-03-17T08:36:25.983Z,11.10
2019-03-17T08:39:06.788Z,11.10
2019-03-17T08:41:48.058Z,11.20
2019-03-17T08:44:28.715Z,11.30
2019-03-17T08:47:09.202Z,11.30
2019-03-17T08:49:49.890Z,11.30
2019-03-17T08:52:34.220Z,11.40
2019-03-17T08:55:13.723Z,11.40
2019-03-17T08:57:54.225Z,11.50
2019-03-17T09:00:34.825Z,11.60
2019-03-17T09:03:15.851Z,11.70
2019-03-17T09:05:56.608Z,11.80
2019-03-17T09:08:37.517Z,11.90
2019-03-17T09:11:18.216Z,11.80
2019-03-17T09:13:59.461Z,11.80
2019-03-17T09:16:40.068Z,11.70
2019-03-17T09:19:21.010Z,11.60
2019-03-17T09:22:01.666Z,11.70
2019-03-17T09:24:42.503Z,11.70
2019-03-17T09:27:23.219Z,11.70
2019-03-17T09:30:04.019Z,11.70
2019-03-17T09:32:44.801Z,11.60
2019-03-17T09:35:25.444Z,11.70
2019-03-17T09:38:06.354Z,11.70
2019-03-17T09:40:46.861Z,11.60
2019-03-17T09:43:27.695Z,11.50
2019-03-17T09:46:08.313Z,11.40
2019-03-17T09:48:49.418Z,11.40
2019-03-17T09:51:30.022Z,11.40
2019-03-17T09:54:10.523Z,11.30
2019-03-17T09:56:51.297Z,11.40
2019-03-17T09:59:32.034Z,11.20
2019-03-17T10:02:12.879Z,11.30
2019-03-17T10:04:53.906Z,11.30
2019-03-17T10:07:34.640Z,11.20
2019-03-17T10:10:15.306Z,11.00
2019-03-17T10:12:56.267Z,11.20
2019-03-17T10:15:37.116Z,11.10
2019-03-17T10:18:18.322Z,11.20
2019-03-17T10:20:58.935Z,11.30
2019-03-17T10:23:39.666Z,11.20
2019-03-17T10:26:20.354Z,11.20
2019-03-17T10:29:01.075Z,11.20
2019-03-17T10:31:41.458Z,11.60
2019-03-17T10:34:21.842Z,11.30
2019-03-17T10:37:02.506Z,11.50
2019-03-17T10:39:43.398Z,11.60
2019-03-17T10:42:24.915Z,11.40
2019-03-17T10:45:05.454Z,11.30
2019-03-17T10:47:46.465Z,11.20
2019-03-17T10:50:27.474Z,11.30
2019-03-17T10:53:07.933Z,11.10
2019-03-17T10:55:48.539Z,11.20
2019-03-17T10:58:29.100Z,11.10
2019-03-17T11:01:09.999Z,10.40
2019-03-17T11:03:51.094Z,8.90
2019-03-17T11:06:31.712Z,8.20
2019-03-17T11:09:24.357Z,8.10
2019-03-17T11:11:54.790Z,8.10
2019-03-17T11:14:35.422Z,8.10
2019-03-17T11:17:16.080Z,8.20
2019-03-17T11:19:56.774Z,8.30
2019-03-17T11:22:37.617Z,8.40
2019-03-17T11:25:18.287Z,8.50
2019-03-17T11:27:59.750Z,8.60
2019-03-17T11:30:41.187Z,8.50
2019-03-17T11:33:21.942Z,8.50
2019-03-17T11:36:02.723Z,8.60
2019-03-17T11:38:43.367Z,8.60
2019-03-17T11:41:23.848Z,8.50
2019-03-17T11:44:04.808Z,8.60
2019-03-17T11:46:45.266Z,8.70
2019-03-17T11:49:25.983Z,8.80
2019-03-17T11:52:06.550Z,8.80
2019-03-17T11:54:47.210Z,8.90
2019-03-17T11:57:28.410Z,8.90
2019-03-17T12:00:08.989Z,9.00
2019-03-17T12:02:49.662Z,9.10
2019-03-17T12:05:30.703Z,9.20
2019-03-17T12:08:11.239Z,9.10
2019-03-17T12:10:51.962Z,9.10
2019-03-17T12:13:32.721Z,9.20
2019-03-17T12:16:13.426Z,9.20
2019-03-17T12:18:54.167Z,9.20
2019-03-17T12:21:34.948Z,9.30
2019-03-17T12:24:15.674Z,9.50
2019-03-17T12:26:56.783Z,9.40
2019-03-17T12:29:38.083Z,9.50
2019-03-17T12:32:18.387Z,9.60
2019-03-17T12:34:59.266Z,9.60
2019-03-17T12:37:40.278Z,9.60
2019-03-17T12:40:21.800Z,9.60
2019-03-17T12:43:03.081Z,9.90
2019-03-17T12:45:44.170Z,10.00
2019-03-17T12:48:25.270Z,10.10
2019-03-17T12:51:06.233Z,10.10
2019-03-17T12:53:47.494Z,10.00
2019-03-17T12:56:28.169Z,10.00
2019-03-17T12:59:08.808Z,9.70
2019-03-17T13:01:49.388Z,9.90
2019-03-17T13:04:30.279Z,10.00
2019-03-17T13:07:11.246Z,9.90
2019-03-17T13:09:51.978Z,9.80
2019-03-17T13:12:33.622Z,9.90
2019-03-17T13:15:14.833Z,10.00
2019-03-17T13:17:56.330Z,10.20
2019-03-17T13:20:37.255Z,10.10
2019-03-17T13:23:17.884Z,9.80
2019-03-17T13:25:58.562Z,9.90
2019-03-17T13:28:39.348Z,9.90
2019-03-17T13:31:20.651Z,9.90
2019-03-17T13:34:01.851Z,9.90
2019-03-17T13:36:42.823Z,10.00
2019-03-17T13:39:23.771Z,9.90
2019-03-17T13:42:04.514Z,9.90
2019-03-17T13:44:45.347Z,9.60
2019-03-17T13:47:26.666Z,9.70
2019-03-17T13:50:07.738Z,9.50
2019-03-17T13:52:48.346Z,8.70
2019-03-17T13:55:28.919Z,8.00
2019-03-17T13:58:09.746Z,8.00
2019-03-17T14:00:50.340Z,7.90
2019-03-17T14:03:30.943Z,7.90
2019-03-17T14:06:11.577Z,7.60
2019-03-17T14:08:52.675Z,7.20
2019-03-17T14:11:33.374Z,7.10
2019-03-17T14:14:13.775Z,6.90
2019-03-17T14:16:54.629Z,6.90
2019-03-17T14:19:35.571Z,6.80
2019-03-17T14:22:16.506Z,6.70
2019-03-17T14:24:57.724Z,6.80
2019-03-17T14:27:38.790Z,6.90
2019-03-17T14:30:19.241Z,7.10
2019-03-17T14:33:00.095Z,7.20
2019-03-17T14:35:41.440Z,7.30
2019-03-17T14:38:22.721Z,7.50
2019-03-17T14:41:03.363Z,7.60
2019-03-17T14:43:44.582Z,7.50
2019-03-17T14:46:25.352Z,7.60
2019-03-17T14:49:05.967Z,7.60
2019-03-17T14:51:46.951Z,7.70
2019-03-17T14:54:27.484Z,7.90
2019-03-17T14:57:08.555Z,7.90
2019-03-17T14:59:48.899Z,8.00
2019-03-17T15:02:29.629Z,8.10
2019-03-17T15:05:10.602Z,7.90
2019-03-17T15:07:51.746Z,8.00
2019-03-17T15:10:32.298Z,8.10
2019-03-17T15:13:13.207Z,8.30
2019-03-17T15:16:02.723Z,8.40
2019-03-17T15:18:37.470Z,8.20
2019-03-17T15:21:18.343Z,8.20
2019-03-17T15:23:57.496Z,8.20
2019-03-17T15:26:45.811Z,8.00
2019-03-17T15:29:33.819Z,7.90
2019-03-17T15:32:22.075Z,7.90
2019-03-17T15:35:10.278Z,7.70
2019-03-17T15:37:58.298Z,7.70
2019-03-17T15:40:46.302Z,7.60
2019-03-17T15:43:34.668Z,7.60
2019-03-17T15:46:29.506Z,7.80
2019-03-17T15:49:17.523Z,8.10
2019-03-17T15:52:05.542Z,8.30
2019-03-17T15:54:46.945Z,8.20
2019-03-17T15:57:28.165Z,8.00
2019-03-17T16:00:09.121Z,8.00
2019-03-17T16:02:50.680Z,7.90
2019-03-17T16:05:32.185Z,7.80
2019-03-17T16:08:12.963Z,7.90
2019-03-17T16:10:52.059Z,7.90
2019-03-17T16:13:40.091Z,7.80
2019-03-17T16:16:28.111Z,7.80
2019-03-17T16:19:16.117Z,7.90
2019-03-17T16:22:04.367Z,7.70
2019-03-17T16:24:52.378Z,7.40
2019-03-17T16:27:40.369Z,7.20
2019-03-17T16:30:28.394Z,7.00
2019-03-17T16:33:16.412Z,6.90
2019-03-17T16:36:04.477Z,6.90
2019-03-17T16:38:52.482Z,6.70
2019-03-17T16:41:43.612Z,6.70
2019-03-17T16:44:30.509Z,6.60
2019-03-17T16:47:18.506Z,6.40
2019-03-17T16:50:07.506Z,6.30
2019-03-17T16:52:55.498Z,6.20
2019-03-17T16:55:37.223Z,6.00
2019-03-17T16:58:18.770Z,6.00
2019-03-17T17:00:59.583Z,5.90
2019-03-17T17:03:40.931Z,5.80
2019-03-17T17:06:21.747Z,5.90
2019-03-17T17:09:02.603Z,5.90
2019-03-17T17:11:55.274Z,5.90
2019-03-17T17:14:25.972Z,6.00
2019-03-17T17:17:06.659Z,6.00
2019-03-17T17:19:47.329Z,5.90
2019-03-17T17:22:28.109Z,6.00
2019-03-17T17:25:08.594Z,6.00
2019-03-17T17:27:49.775Z,6.00
2019-03-17T17:30:30.163Z,5.80
2019-03-17T17:33:10.720Z,5.80
2019-03-17T17:35:51.542Z,5.90
2019-03-17T17:38:32.391Z,5.80
2019-03-17T17:41:13.185Z,5.80
2019-03-17T17:43:54.142Z,5.80
2019-03-17T17:46:35.602Z,5.80
2019-03-17T17:49:16.357Z,5.70
2019-03-17T17:51:57.015Z,5.80
2019-03-17T17:54:38.539Z,6.00
2019-03-17T17:57:19.104Z,5.90
2019-03-17T17:59:59.808Z,5.90
2019-03-17T18:02:41.047Z,5.90
2019-03-17T18:05:21.949Z,5.90
2019-03-17T18:08:02.855Z,5.80
2019-03-17T18:10:43.590Z,5.80
2019-03-17T18:13:24.206Z,5.80
2019-03-17T18:16:05.234Z,5.90
2019-03-17T18:18:46.102Z,6.00
2019-03-17T18:21:27.263Z,5.90
2019-03-17T18:24:07.742Z,5.90
2019-03-17T18:26:48.872Z,5.90
2019-03-17T18:29:30.427Z,5.90
2019-03-17T18:32:11.996Z,5.90
2019-03-17T18:34:52.756Z,6.00
2019-03-17T18:37:33.571Z,6.00
2019-03-17T18:40:14.490Z,6.00
2019-03-17T18:42:54.850Z,6.10
2019-03-17T18:45:35.619Z,6.10
2019-03-17T18:48:16.818Z,6.20
2019-03-17T18:50:57.535Z,6.20
2019-03-17T18:53:38.863Z,6.20
2019-03-17T18:56:19.297Z,6.20
2019-03-17T18:58:59.946Z,6.20
2019-03-17T19:01:41.174Z,6.10
2019-03-17T19:04:21.530Z,6.20
2019-03-17T19:07:02.567Z,6.20
2019-03-17T19:09:43.753Z,6.10
2019-03-17T19:12:24.644Z,6.10
2019-03-17T19:15:05.612Z,6.20
2019-03-17T19:17:46.523Z,6.10
2019-03-17T19:20:27.399Z,6.10
2019-03-17T19:23:08.903Z,6.10
2019-03-17T19:25:49.598Z,6.20
2019-03-17T19:28:30.424Z,6.00
2019-03-17T19:31:11.154Z,6.10
2019-03-17T19:33:51.915Z,6.10
2019-03-17T19:36:32.746Z,6.20
2019-03-17T19:39:13.866Z,6.20
2019-03-17T19:41:54.481Z,6.20
2019-03-17T19:44:35.635Z,6.20
2019-03-17T19:47:16.010Z,6.10
2019-03-17T19:49:56.946Z,6.10
2019-03-17T19:52:37.883Z,6.10
2019-03-17T19:55:19.407Z,6.10
2019-03-17T19:57:59.993Z,6.10
2019-03-17T20:00:40.645Z,6.10
2019-03-17T20:03:21.534Z,6.00
2019-03-17T20:06:02.776Z,6.00
2019-03-17T20:08:44.105Z,6.00
2019-03-17T20:11:25.775Z,6.00
2019-03-17T20:14:07.491Z,5.90
2019-03-17T20:16:48.568Z,6.00
2019-03-17T20:19:29.503Z,6.00
2019-03-17T20:22:10.522Z,6.00
2019-03-17T20:24:51.850Z,6.00
2019-03-17T20:27:33.000Z,6.00
2019-03-17T20:30:13.883Z,6.00
2019-03-17T20:32:54.860Z,5.90
2019-03-17T20:35:35.687Z,6.00
2019-03-17T20:38:16.826Z,5.90
2019-03-17T20:40:57.429Z,5.90
2019-03-17T20:43:38.087Z,5.80
2019-03-17T20:46:18.835Z,5.90
2019-03-17T20:48:59.548Z,5.90
2019-03-17T20:51:40.470Z,5.90
2019-03-17T20:54:23.203Z,6.00
2019-03-17T20:57:02.296Z,6.00
2019-03-17T20:59:50.586Z,6.00
2019-03-17T21:02:38.931Z,6.00
2019-03-17T21:05:26.941Z,6.00
2019-03-17T21:08:14.975Z,5.90
2019-03-17T21:11:03.259Z,5.90
2019-03-17T21:13:51.269Z,6.00
2019-03-17T21:16:39.547Z,6.00
2019-03-17T21:19:27.557Z,6.00
2019-03-17T21:22:15.841Z,6.00
2019-03-17T21:25:04.195Z,6.00
2019-03-17T21:27:52.747Z,5.90
2019-03-17T21:30:40.995Z,5.80
2019-03-17T21:33:29.343Z,5.90
2019-03-17T21:36:17.690Z,5.90
2019-03-17T21:39:06.481Z,5.90
2019-03-17T21:41:54.494Z,5.90
2019-03-17T21:44:42.830Z,6.10
2019-03-17T21:47:31.162Z,6.00
2019-03-17T21:50:19.627Z,6.00
2019-03-17T21:53:07.639Z,6.00
2019-03-17T21:55:48.008Z,6.00
2019-03-17T21:58:28.842Z,6.00
2019-03-17T22:01:09.782Z,5.90
2019-03-17T22:03:50.912Z,5.80
2019-03-17T22:06:31.862Z,5.90
2019-03-17T22:09:12.580Z,5.80
2019-03-17T22:11:53.276Z,5.90
2019-03-17T22:14:34.610Z,5.80
2019-03-17T22:17:15.746Z,5.70
2019-03-17T22:19:56.466Z,5.80
2019-03-17T22:22:37.141Z,5.70
2019-03-17T22:25:18.062Z,5.70
2019-03-17T22:28:08.358Z,5.60
2019-03-17T22:30:41.841Z,5.60
2019-03-17T22:33:22.485Z,5.60
2019-03-17T22:36:03.162Z,5.60
2019-03-17T22:38:43.825Z,5.50
2019-03-17T22:41:24.646Z,5.50
2019-03-17T22:44:05.248Z,5.50
2019-03-17T22:46:45.898Z,5.40
2019-03-17T22:49:26.501Z,5.40
2019-03-17T22:52:07.511Z,5.30
2019-03-17T22:54:48.041Z,5.30
2019-03-17T22:57:28.778Z,5.40
2019-03-17T23:00:10.062Z,5.40
2019-03-17T23:02:51.058Z,5.40
2019-03-17T23:05:31.738Z,5.40
2019-03-17T23:08:12.367Z,5.40
2019-03-17T23:10:53.331Z,5.30
2019-03-17T23:13:34.544Z,5.30
2019-03-17T23:16:15.543Z,5.30
2019-03-17T23:18:56.658Z,5.30
2019-03-17T23:21:37.534Z,5.30
2019-03-17T23:24:18.152Z,5.30
2019-03-17T23:26:59.070Z,5.30
2019-03-17T23:29:40.284Z,5.20
2019-03-17T23:32:21.268Z,5.20
2019-03-17T23:35:02.143Z,5.20
2019-03-17T23:37:43.471Z,5.20
2019-03-17T23:40:24.359Z,5.20
2019-03-17T23:43:05.286Z,5.20
2019-03-17T23:45:45.810Z,5.20
2019-03-17T23:48:26.650Z,5.20
2019-03-17T23:51:07.268Z,5.20
2019-03-17T23:53:48.214Z,5.10
2019-03-17T23:56:28.944Z,5.20
2019-03-17T23:59:09.995Z,5.20
